createdAt,value
2023-04-27T00:03:12.005Z,100550.66
2023-04-27T00:08:13.558Z,100547.28
2023-04-27T00:13:14.899Z,100545.06
2023-04-27T00:18:16.304Z,100533.69
2023-04-27T00:23:17.657Z,100542.59
2023-04-27T00:28:19.012Z,100534.53
2023-04-27T00:33:21.269Z,100519.78
2023-04-27T00:38:22.590Z,100521.78
2023-04-27T00:43:23.931Z,100524.28
2023-04-27T00:48:25.924Z,100529.31
2023-04-27T00:53:27.290Z,100529.31
2023-04-27T00:58:28.812Z,100523.59
2023-04-27T01:03:30.747Z,100524.38
2023-04-27T01:08:32.229Z,100531.72
2023-04-27T01:13:33.564Z,100542.06
2023-04-27T01:18:35.025Z,100542.72
2023-04-27T01:23:36.557Z,100543.22
2023-04-27T01:28:37.916Z,100539.81
2023-04-27T01:33:39.804Z,100539.63
2023-04-27T01:38:41.555Z,100549.38
2023-04-27T01:43:43.682Z,100553.59
2023-04-27T01:48:45.042Z,100551.94
2023-04-27T01:53:46.383Z,100564.59
2023-04-27T01:58:47.702Z,100568.03
2023-04-27T02:03:52.207Z,100567.41
2023-04-27T02:08:53.714Z,100571.66
2023-04-27T02:13:55.242Z,100565.16
2023-04-27T02:18:56.602Z,100569.19
2023-04-27T02:23:58.008Z,100569.03
2023-04-27T02:28:59.496Z,100571.88
2023-04-27T02:34:01.386Z,100573.66
2023-04-27T02:39:03.092Z,100583.47
2023-04-27T02:44:04.629Z,100587.38
2023-04-27T02:49:06.000Z,100581.81
2023-04-27T02:54:07.405Z,100583.28
2023-04-27T02:59:08.729Z,100581.03
2023-04-27T03:04:10.779Z,100578.53
2023-04-27T03:09:13.186Z,100578.22
2023-04-27T03:14:14.702Z,100572.66
2023-04-27T03:19:16.254Z,100568.00
2023-04-27T03:24:17.728Z,100567.72
2023-04-27T03:29:19.221Z,100568.66
2023-04-27T03:34:21.758Z,100569.13
2023-04-27T03:39:23.135Z,100556.25
2023-04-27T03:44:24.497Z,100558.16
2023-04-27T03:49:26.227Z,100559.16
2023-04-27T03:54:27.569Z,100555.13
2023-04-27T03:59:30.122Z,100556.78
2023-04-27T04:04:31.809Z,100569.34
2023-04-27T04:09:33.318Z,100569.50
2023-04-27T04:14:34.650Z,100574.56
2023-04-27T04:19:36.179Z,100572.69
2023-04-27T04:24:37.588Z,100583.28
2023-04-27T04:29:39.328Z,100582.81
2023-04-27T04:34:40.717Z,100584.81
2023-04-27T04:39:42.053Z,100598.50
2023-04-27T04:44:43.452Z,100588.09
2023-04-27T04:49:44.817Z,100584.50
2023-04-27T04:54:46.381Z,100591.69
2023-04-27T04:59:47.754Z,100591.69
2023-04-27T05:04:49.596Z,100596.75
2023-04-27T05:09:50.978Z,100595.13
2023-04-27T05:14:53.086Z,100593.00
2023-04-27T05:19:54.415Z,100607.22
2023-04-27T05:24:57.109Z,100611.97
2023-04-27T05:29:58.441Z,100612.03
2023-04-27T05:34:59.801Z,100617.53
2023-04-27T05:40:01.289Z,100613.56
2023-04-27T05:45:03.835Z,100610.66
2023-04-27T05:50:06.151Z,100612.06
2023-04-27T05:55:08.209Z,100615.31
2023-04-27T06:00:10.961Z,100633.38
2023-04-27T06:05:12.406Z,100628.28
2023-04-27T06:10:14.571Z,100634.25
2023-04-27T06:15:17.003Z,100629.31
2023-04-27T06:20:18.530Z,100626.66
2023-04-27T06:25:20.019Z,100632.25
2023-04-27T06:30:21.525Z,100636.81
2023-04-27T06:35:22.925Z,100639.00
2023-04-27T06:40:25.826Z,100637.84
2023-04-27T06:45:27.211Z,100643.19
2023-04-27T06:50:29.304Z,100645.81
2023-04-27T06:55:30.919Z,100647.97
2023-04-27T07:00:32.317Z,100657.84
2023-04-27T07:05:34.493Z,100653.44
2023-04-27T07:10:36.049Z,100648.66
2023-04-27T07:15:37.403Z,100656.69
2023-04-27T07:20:38.736Z,100653.84
2023-04-27T07:25:40.254Z,100652.69
2023-04-27T07:30:42.582Z,100648.94
2023-04-27T07:35:43.921Z,100644.75
2023-04-27T07:40:46.116Z,100641.19
2023-04-27T07:45:48.011Z,100640.59
2023-04-27T07:50:49.404Z,100641.25
2023-04-27T07:55:50.790Z,100636.53
2023-04-27T08:00:52.130Z,100640.72
2023-04-27T08:05:53.627Z,100639.97
2023-04-27T08:10:55.393Z,100635.78
2023-04-27T08:15:59.202Z,100632.38
2023-04-27T08:21:00.581Z,100633.38
2023-04-27T08:26:01.910Z,100632.75
2023-04-27T08:31:03.373Z,100627.84
2023-04-27T08:36:05.161Z,100622.13
2023-04-27T08:41:20.345Z,100624.53
2023-04-27T08:46:24.241Z,100614.16
2023-04-27T08:51:27.434Z,100624.72
2023-04-27T08:56:29.821Z,100625.69
2023-04-27T09:01:32.149Z,100617.09
2023-04-27T09:06:35.774Z,100623.50
2023-04-27T09:11:38.960Z,100623.19
2023-04-27T09:16:40.395Z,100608.31
2023-04-27T09:21:43.079Z,100610.38
2023-04-27T09:26:49.605Z,100600.69
2023-04-27T09:31:51.038Z,100603.41
2023-04-27T09:36:53.224Z,100605.50
2023-04-27T09:41:54.935Z,100599.34
2023-04-27T09:46:58.563Z,100598.78
2023-04-27T09:51:59.933Z,100589.84
2023-04-27T09:57:15.380Z,100582.31
2023-04-27T10:02:25.350Z,100580.66
2023-04-27T10:07:28.238Z,100562.06
2023-04-27T10:12:38.703Z,100559.56
2023-04-27T10:17:48.203Z,100563.06
2023-04-27T10:22:52.473Z,100565.66
2023-04-27T10:28:01.970Z,100559.47
2023-04-27T10:33:11.696Z,100554.97
2023-04-27T10:38:18.554Z,100555.44
2023-04-27T10:43:28.396Z,100551.69
2023-04-27T10:48:30.143Z,100552.19
2023-04-27T10:53:35.949Z,100543.81
2023-04-27T11:03:46.734Z,100544.44
2023-04-27T11:08:48.364Z,100538.28
2023-04-27T11:13:50.357Z,100539.81
2023-04-27T11:18:51.730Z,100529.25
2023-04-27T11:23:53.272Z,100526.66
2023-04-27T11:29:04.929Z,100513.13
2023-04-27T11:34:08.015Z,100519.53
2023-04-27T11:39:16.730Z,100518.97
2023-04-27T11:44:18.257Z,100513.19
2023-04-27T11:49:19.950Z,100507.72
2023-04-27T11:54:28.500Z,100498.34
2023-04-27T11:59:29.878Z,100492.94
2023-04-27T12:04:32.004Z,100493.44
2023-04-27T12:09:33.961Z,100478.69
2023-04-27T12:14:35.540Z,100483.50
2023-04-27T12:19:37.182Z,100484.16
2023-04-27T12:24:38.603Z,100478.81
2023-04-27T12:29:39.947Z,100463.88
2023-04-27T12:34:42.780Z,100468.56
2023-04-27T12:39:44.193Z,100452.19
2023-04-27T12:44:45.606Z,100457.28
2023-04-27T12:49:47.057Z,100450.63
2023-04-27T12:54:48.476Z,100453.47
2023-04-27T12:59:49.802Z,100450.06
2023-04-27T13:04:51.695Z,100439.44
2023-04-27T13:09:53.131Z,100433.66
2023-04-27T13:14:54.638Z,100434.09
2023-04-27T13:19:56.155Z,100433.28
2023-04-27T13:24:57.951Z,100425.53
2023-04-27T13:29:59.426Z,100429.16
2023-04-27T13:35:00.839Z,100425.50
2023-04-27T13:40:02.179Z,100419.13
2023-04-27T13:45:04.718Z,100419.41
2023-04-27T13:50:08.098Z,100412.84
2023-04-27T13:55:10.776Z,100410.97
2023-04-27T14:00:13.860Z,100404.81
2023-04-27T14:05:15.373Z,100415.38
2023-04-27T14:10:17.788Z,100415.94
2023-04-27T14:15:19.255Z,100413.09
2023-04-27T14:20:21.116Z,100411.91
2023-04-27T14:25:22.507Z,100406.63
2023-04-27T14:30:23.934Z,100407.53
2023-04-27T14:35:25.595Z,100400.63
2023-04-27T14:40:28.938Z,100400.81
2023-04-27T14:45:39.713Z,100402.72
2023-04-27T14:50:49.353Z,100405.03
2023-04-27T14:55:50.850Z,100396.53
2023-04-27T15:00:52.428Z,100404.50
2023-04-27T15:05:54.054Z,100394.50
2023-04-27T15:10:57.696Z,100391.28
2023-04-27T15:16:00.848Z,100384.69
2023-04-27T15:21:02.384Z,100386.06
2023-04-27T15:26:03.801Z,100384.69
2023-04-27T15:31:05.185Z,100373.41
2023-04-27T15:36:06.721Z,100356.06
2023-04-27T15:41:08.074Z,100351.34
2023-04-27T15:46:09.560Z,100341.69
2023-04-27T15:51:11.915Z,100327.34
2023-04-27T15:56:13.324Z,100324.06
2023-04-27T16:01:14.792Z,100327.03
2023-04-27T16:06:16.472Z,100315.22
2023-04-27T16:11:17.788Z,100311.66
2023-04-27T16:16:19.178Z,100304.75
2023-04-27T16:21:21.669Z,100297.09
2023-04-27T16:26:23.514Z,100306.47
2023-04-27T16:31:25.858Z,100306.78
2023-04-27T16:36:27.694Z,100298.50
2023-04-27T16:41:29.214Z,100297.72
2023-04-27T16:46:30.610Z,100289.41
2023-04-27T16:51:32.457Z,100290.34
2023-04-27T16:56:36.050Z,100305.03
2023-04-27T17:01:37.957Z,100304.16
2023-04-27T17:06:40.851Z,100303.66
2023-04-27T17:11:42.338Z,100321.31
2023-04-27T17:16:43.729Z,100319.09
2023-04-27T17:21:45.066Z,100314.97
2023-04-27T17:26:48.142Z,100312.66
2023-04-27T17:31:50.463Z,100307.97
2023-04-27T17:36:51.943Z,100292.25
2023-04-27T17:41:53.278Z,100290.72
2023-04-27T17:46:54.761Z,100296.84
2023-04-27T17:51:56.295Z,100296.16
2023-04-27T17:56:57.717Z,100304.47
2023-04-27T18:01:59.231Z,100302.16
2023-04-27T18:07:00.576Z,100301.81
2023-04-27T18:12:02.263Z,100298.56
2023-04-27T18:17:04.047Z,100299.19
2023-04-27T18:22:05.400Z,100298.94
2023-04-27T18:27:06.904Z,100293.22
2023-04-27T18:32:08.469Z,100300.28
2023-04-27T18:37:10.506Z,100291.94
2023-04-27T18:42:11.876Z,100295.56
2023-04-27T18:47:13.927Z,100289.56
2023-04-27T18:52:15.337Z,100301.31
2023-04-27T18:57:16.689Z,100308.22
2023-04-27T19:02:18.099Z,100319.56
2023-04-27T19:07:19.599Z,100323.09
2023-04-27T19:12:22.638Z,100330.81
2023-04-27T19:17:24.039Z,100334.38
2023-04-27T19:22:26.910Z,100326.13
2023-04-27T19:27:28.290Z,100323.59
2023-04-27T19:32:30.729Z,100321.94
2023-04-27T19:37:32.105Z,100316.31
2023-04-27T19:42:33.587Z,100318.47
2023-04-27T19:47:35.370Z,100322.66
2023-04-27T19:52:36.858Z,100321.63
2023-04-27T19:57:38.179Z,100311.63
2023-04-27T20:02:39.833Z,100302.69
2023-04-27T20:07:41.689Z,100296.88
2023-04-27T20:12:55.402Z,100295.28
2023-04-27T20:17:57.886Z,100296.09
2023-04-27T20:22:59.310Z,100290.13
2023-04-27T20:28:00.694Z,100293.03
2023-04-27T20:33:03.588Z,100293.47
2023-04-27T20:38:05.492Z,100283.25
2023-04-27T20:43:07.914Z,100279.72
2023-04-27T20:48:11.691Z,100272.59
2023-04-27T20:53:13.115Z,100268.00
2023-04-27T20:58:14.565Z,100254.88
2023-04-27T21:03:16.177Z,100269.91
2023-04-27T21:08:17.825Z,100268.84
2023-04-27T21:13:19.772Z,100276.13
2023-04-27T21:18:29.607Z,100272.00
2023-04-27T21:23:35.343Z,100266.16
2023-04-27T21:28:36.928Z,100260.53
2023-04-27T21:33:38.317Z,100253.25
2023-04-27T21:38:39.630Z,100250.13
2023-04-27T21:43:42.067Z,100250.34
2023-04-27T21:48:43.493Z,100249.94
2023-04-27T21:53:44.838Z,100245.97
2023-04-27T21:58:46.348Z,100250.34
2023-04-27T22:03:47.834Z,100249.94
2023-04-27T22:08:49.303Z,100247.66
2023-04-27T22:13:51.175Z,100248.28
2023-04-27T22:18:53.759Z,100242.44
2023-04-27T22:23:55.234Z,100246.00
2023-04-27T22:28:56.845Z,100230.56
2023-04-27T22:33:58.438Z,100222.44
2023-04-27T22:39:00.184Z,100215.16
2023-04-27T22:44:01.594Z,100235.16
2023-04-27T22:49:03.086Z,100224.31
2023-04-27T22:54:04.478Z,100211.84
2023-04-27T22:59:06.015Z,100215.97
2023-04-27T23:04:08.897Z,100206.44
2023-04-27T23:09:10.563Z,100218.91
2023-04-27T23:14:12.068Z,100199.13
2023-04-27T23:19:13.583Z,100201.00
2023-04-27T23:24:15.153Z,100199.97
2023-04-27T23:29:16.758Z,100195.19
2023-04-27T23:34:18.237Z,100189.13
2023-04-27T23:39:19.780Z,100183.94
2023-04-27T23:44:21.364Z,100173.72
2023-04-27T23:49:22.730Z,100168.13
2023-04-27T23:54:24.034Z,100166.63
2023-04-27T23:59:25.412Z,100175.59
